createdAt,value
2019-02-21T00:01:37.143Z,12.87
2019-02-21T00:04:22.493Z,11.47
2019-02-21T00:07:06.541Z,10.80
2019-02-21T00:09:50.297Z,12.47
2019-02-21T00:12:35.294Z,10.87
2019-02-21T00:15:18.010Z,9.80
2019-02-21T00:18:00.629Z,10.40
2019-02-21T00:20:45.981Z,11.30
2019-02-21T00:23:30.925Z,9.97
2019-02-21T00:26:16.359Z,13.00
2019-02-21T00:28:59.080Z,11.77
2019-02-21T00:31:44.204Z,10.20
2019-02-21T00:34:28.692Z,12.53
2019-02-21T00:37:11.278Z,13.03
2019-02-21T00:39:55.200Z,15.33
2019-02-21T00:42:40.523Z,15.67
2019-02-21T00:45:23.652Z,14.33
2019-02-21T00:48:06.897Z,15.40
2019-02-21T00:50:50.375Z,12.83
2019-02-21T00:53:33.270Z,10.90
2019-02-21T00:56:16.288Z,12.87
2019-02-21T00:59:01.332Z,10.57
2019-02-21T01:01:44.875Z,11.03
2019-02-21T01:04:28.349Z,10.93
2019-02-21T01:07:11.012Z,10.60
2019-02-21T01:09:54.517Z,10.80
2019-02-21T01:12:38.633Z,9.00
2019-02-21T01:15:21.785Z,8.20
2019-02-21T01:18:05.531Z,11.23
2019-02-21T01:20:48.760Z,10.13
2019-02-21T01:23:31.971Z,10.00
2019-02-21T01:26:14.960Z,10.70
2019-02-21T01:28:58.139Z,10.17
2019-02-21T01:31:43.716Z,9.23
2019-02-21T01:34:28.337Z,11.37
2019-02-21T01:37:13.882Z,9.73
2019-02-21T01:39:56.629Z,8.57
2019-02-21T01:42:39.594Z,11.07
2019-02-21T01:45:23.853Z,13.20
2019-02-21T01:48:08.664Z,10.70
2019-02-21T01:50:52.549Z,9.10
2019-02-21T01:53:35.251Z,9.60
2019-02-21T01:56:18.239Z,10.73
2019-02-21T01:59:01.295Z,10.50
2019-02-21T02:01:44.004Z,9.33
2019-02-21T02:04:28.786Z,9.37
2019-02-21T02:07:11.957Z,9.93
2019-02-21T02:09:57.396Z,9.20
2019-02-21T02:12:42.315Z,9.13
2019-02-21T02:15:27.125Z,10.45
2019-02-21T02:18:12.034Z,8.73
2019-02-21T02:20:55.160Z,8.77
2019-02-21T02:23:37.842Z,10.50
2019-02-21T02:26:20.426Z,9.70
2019-02-21T02:29:03.375Z,8.60
2019-02-21T02:31:48.066Z,9.47
2019-02-21T02:34:31.081Z,10.70
2019-02-21T02:37:13.829Z,10.73
2019-02-21T02:39:57.144Z,9.43
2019-02-21T02:42:40.126Z,9.07
2019-02-21T02:45:22.863Z,9.27
2019-02-21T02:48:06.384Z,10.90
2019-02-21T02:50:49.260Z,11.33
2019-02-21T02:53:31.731Z,9.97
2019-02-21T02:56:14.519Z,10.67
2019-02-21T02:58:57.893Z,11.23
2019-02-21T03:01:42.213Z,10.60
2019-02-21T03:04:25.074Z,11.18
2019-02-21T03:07:08.950Z,9.97
2019-02-21T03:09:55.632Z,9.23
2019-02-21T03:12:38.360Z,9.77
2019-02-21T03:15:23.784Z,11.90
2019-02-21T03:18:07.216Z,9.77
2019-02-21T03:20:50.180Z,11.00
2019-02-21T03:23:33.083Z,9.73
2019-02-21T03:26:15.862Z,11.83
2019-02-21T03:28:59.318Z,10.70
2019-02-21T03:31:54.552Z,12.00
2019-02-21T03:34:27.649Z,9.93
2019-02-21T03:37:12.854Z,10.50
2019-02-21T03:39:57.924Z,11.37
2019-02-21T03:42:44.791Z,10.70
2019-02-21T03:45:28.337Z,11.97
2019-02-21T03:48:11.362Z,12.27
2019-02-21T03:50:54.353Z,11.23
2019-02-21T03:53:40.976Z,11.37
2019-02-21T03:56:23.945Z,13.23
2019-02-21T03:59:06.582Z,14.37
2019-02-21T04:01:50.685Z,13.50
2019-02-21T04:04:33.547Z,11.20
2019-02-21T04:07:16.972Z,12.20
2019-02-21T04:10:02.003Z,13.77
2019-02-21T04:12:45.068Z,13.37
2019-02-21T04:15:28.209Z,12.47
2019-02-21T04:18:10.789Z,14.30
2019-02-21T04:20:54.186Z,14.33
2019-02-21T04:26:20.098Z,13.20
2019-02-21T04:29:04.981Z,13.98
2019-02-21T04:31:50.187Z,11.43
2019-02-21T04:34:35.679Z,12.50
2019-02-21T04:37:18.352Z,11.30
2019-02-21T04:40:01.024Z,12.43
2019-02-21T04:42:44.125Z,11.60
2019-02-21T04:45:26.818Z,12.37
2019-02-21T04:48:10.270Z,11.67
2019-02-21T04:50:54.463Z,12.77
2019-02-21T04:53:37.999Z,12.77
2019-02-21T04:56:22.539Z,12.77
2019-02-21T04:59:06.701Z,14.13
2019-02-21T05:01:51.834Z,14.70
2019-02-21T05:04:34.888Z,14.67
2019-02-21T05:07:17.981Z,14.77
2019-02-21T05:10:00.966Z,16.47
2019-02-21T05:12:44.741Z,14.90
2019-02-21T05:15:27.870Z,15.23
2019-02-21T05:18:10.537Z,14.90
2019-02-21T05:20:53.518Z,19.07
2019-02-21T05:23:36.883Z,15.50
2019-02-21T05:29:04.980Z,17.27
2019-02-21T05:32:11.505Z,16.60
2019-02-21T05:35:16.186Z,17.50
2019-02-21T05:38:07.741Z,16.77
2019-02-21T05:41:38.431Z,17.80
2019-02-21T05:44:40.197Z,17.73
2019-02-21T05:47:23.598Z,19.47
2019-02-21T05:50:31.144Z,19.77
2019-02-21T05:53:35.072Z,20.80
2019-02-21T05:56:31.958Z,19.23
2019-02-21T05:59:37.410Z,19.33
2019-02-21T06:02:21.591Z,20.43
2019-02-21T06:05:25.067Z,20.83
2019-02-21T06:08:13.937Z,18.70
2019-02-21T06:11:03.675Z,21.83
2019-02-21T06:14:28.721Z,20.33
2019-02-21T06:17:34.179Z,20.07
2019-02-21T06:20:27.007Z,19.13
2019-02-21T06:23:30.639Z,21.87
2019-02-21T06:26:35.495Z,21.57
2019-02-21T06:29:40.459Z,20.37
2019-02-21T06:32:43.461Z,21.00
2019-02-21T06:35:26.883Z,19.07
2019-02-21T06:38:10.231Z,19.50
2019-02-21T06:40:53.220Z,18.63
2019-02-21T06:43:36.574Z,18.00
2019-02-21T06:46:19.474Z,19.27
2019-02-21T06:49:02.541Z,20.10
2019-02-21T06:51:45.940Z,22.30
2019-02-21T06:54:31.960Z,21.70
2019-02-21T06:57:14.950Z,23.07
2019-02-21T06:59:58.283Z,21.70
2019-02-21T07:02:42.028Z,24.70
2019-02-21T07:05:24.826Z,24.07
2019-02-21T07:08:09.448Z,25.67
2019-02-21T07:10:52.090Z,25.70
2019-02-21T07:13:35.007Z,24.70
2019-02-21T07:16:19.323Z,23.52
2019-02-21T07:19:02.380Z,23.83
2019-02-21T07:21:45.011Z,21.97
2019-02-21T07:24:28.345Z,25.83
2019-02-21T07:27:11.812Z,22.00
2019-02-21T07:29:54.675Z,24.63
2019-02-21T07:32:37.393Z,23.63
2019-02-21T07:35:20.804Z,23.70
2019-02-21T07:38:03.720Z,22.00
2019-02-21T07:40:49.278Z,24.30
2019-02-21T07:43:32.580Z,23.07
2019-02-21T07:46:16.045Z,25.30
2019-02-21T07:48:59.488Z,27.43
2019-02-21T07:51:42.545Z,26.57
2019-02-21T07:54:25.528Z,29.43
2019-02-21T07:57:09.035Z,21.63
2019-02-21T07:59:51.822Z,24.90
2019-02-21T08:02:34.601Z,25.97
2019-02-21T08:05:17.573Z,23.33
2019-02-21T08:08:00.303Z,26.23
2019-02-21T08:10:43.350Z,26.70
2019-02-21T08:13:26.035Z,25.77
2019-02-21T08:16:09.537Z,23.27
2019-02-21T08:18:52.984Z,26.23
2019-02-21T08:21:36.935Z,26.17
2019-02-21T08:24:22.149Z,26.07
2019-02-21T08:27:05.587Z,28.47
2019-02-21T08:29:48.849Z,24.27
2019-02-21T08:32:36.072Z,24.53
2019-02-21T08:35:22.880Z,27.23
2019-02-21T08:38:06.118Z,23.07
2019-02-21T08:40:49.794Z,23.47
2019-02-21T08:43:33.169Z,28.55
2019-02-21T08:46:18.223Z,26.30
2019-02-21T08:49:00.222Z,22.77
2019-02-21T08:51:43.048Z,23.53
2019-02-21T08:54:27.376Z,23.97
2019-02-21T08:57:10.275Z,23.50
2019-02-21T08:59:53.141Z,28.93
2019-02-21T09:02:37.479Z,23.30
2019-02-21T09:05:22.700Z,22.10
2019-02-21T09:08:05.842Z,21.52
2019-02-21T09:10:50.798Z,19.87
2019-02-21T09:13:33.353Z,21.42
2019-02-21T09:16:18.015Z,20.25
2019-02-21T09:19:00.936Z,19.77
2019-02-21T09:21:43.803Z,20.00
2019-02-21T09:24:38.235Z,18.48
2019-02-21T09:27:12.802Z,18.12
2019-02-21T09:29:55.693Z,15.28
2019-02-21T09:32:42.058Z,19.17
2019-02-21T09:35:26.998Z,15.25
2019-02-21T09:38:10.648Z,17.80
2019-02-21T09:40:54.947Z,15.18
2019-02-21T09:43:37.925Z,15.15
2019-02-21T09:46:20.735Z,14.85
2019-02-21T09:49:06.447Z,15.05
2019-02-21T09:51:49.201Z,14.20
2019-02-21T09:54:31.926Z,14.28
2019-02-21T09:57:16.310Z,13.43
2019-02-21T10:00:00.829Z,15.08
2019-02-21T10:02:44.270Z,14.18
2019-02-21T10:05:29.451Z,13.08
2019-02-21T10:08:14.722Z,14.20
2019-02-21T10:10:57.726Z,12.23
2019-02-21T10:13:41.801Z,12.07
2019-02-21T10:16:26.452Z,12.18
2019-02-21T10:19:09.572Z,12.47
2019-02-21T10:21:52.613Z,14.25
2019-02-21T10:24:35.571Z,14.00
2019-02-21T10:27:19.095Z,12.95
2019-02-21T10:30:02.261Z,13.50
2019-02-21T10:32:47.842Z,13.20
2019-02-21T10:35:30.820Z,13.38
2019-02-21T10:38:14.650Z,14.75
2019-02-21T10:40:58.284Z,13.68
2019-02-21T10:43:41.529Z,13.40
2019-02-21T10:46:24.203Z,13.28
2019-02-21T10:49:07.440Z,12.00
2019-02-21T10:51:50.057Z,12.63
2019-02-21T10:54:33.820Z,12.98
2019-02-21T10:57:17.124Z,13.40
2019-02-21T11:00:02.610Z,15.85
2019-02-21T11:02:48.060Z,13.55
2019-02-21T11:05:30.903Z,12.60
2019-02-21T11:08:13.693Z,14.73
2019-02-21T11:10:57.990Z,14.18
2019-02-21T11:16:30.120Z,13.93
2019-02-21T11:19:13.412Z,15.20
2019-02-21T11:21:56.017Z,23.27
2019-02-21T11:24:40.785Z,16.85
2019-02-21T11:27:23.653Z,12.70
2019-02-21T11:30:06.492Z,14.30
2019-02-21T11:32:50.737Z,14.60
2019-02-21T11:35:35.999Z,13.68
2019-02-21T11:38:18.742Z,14.65
2019-02-21T11:41:01.605Z,15.40
2019-02-21T11:43:47.025Z,15.40
2019-02-21T11:46:31.715Z,15.83
2019-02-21T11:49:15.998Z,16.57
2019-02-21T11:52:09.841Z,13.88
2019-02-21T11:54:48.040Z,14.90
2019-02-21T11:57:30.650Z,16.20
2019-02-21T12:00:14.182Z,12.25
2019-02-21T12:02:57.472Z,13.88
2019-02-21T12:05:42.573Z,15.65
2019-02-21T12:08:29.261Z,15.53
2019-02-21T12:11:11.754Z,15.60
2019-02-21T12:13:57.039Z,14.83
2019-02-21T12:16:41.917Z,16.57
2019-02-21T12:19:24.846Z,14.15
2019-02-21T12:22:08.948Z,15.55
2019-02-21T12:24:52.331Z,14.75
2019-02-21T12:27:35.765Z,14.40
2019-02-21T12:30:19.322Z,14.35
2019-02-21T12:33:02.898Z,13.45
2019-02-21T12:35:45.406Z,15.25
2019-02-21T12:41:36.681Z,15.43
2019-02-21T12:44:21.751Z,18.40
2019-02-21T12:47:04.409Z,15.78
2019-02-21T12:49:46.964Z,19.02
2019-02-21T12:52:30.949Z,15.83
2019-02-21T12:55:14.200Z,17.98
2019-02-21T12:57:58.564Z,14.63
2019-02-21T13:03:26.282Z,18.98
2019-02-21T13:06:13.017Z,12.60
2019-02-21T13:08:56.107Z,15.13
2019-02-21T13:11:39.686Z,14.28
2019-02-21T13:14:23.673Z,14.83
2019-02-21T13:17:06.826Z,16.05
2019-02-21T13:19:50.064Z,12.35
2019-02-21T13:22:34.849Z,12.85
2019-02-21T13:25:17.852Z,10.28
2019-02-21T13:28:00.467Z,12.60
2019-02-21T13:30:44.060Z,12.50
2019-02-21T13:33:27.175Z,10.25
2019-02-21T13:36:10.357Z,11.40
2019-02-21T13:38:53.234Z,13.20
2019-02-21T13:41:36.380Z,12.20
2019-02-21T13:44:20.050Z,13.05
2019-02-21T13:47:03.528Z,11.12
2019-02-21T13:49:46.302Z,10.10
2019-02-21T13:52:30.326Z,9.25
2019-02-21T13:55:13.205Z,9.78
2019-02-21T13:57:57.186Z,9.45
2019-02-21T14:00:42.194Z,11.90
2019-02-21T14:03:27.369Z,10.82
2019-02-21T14:06:12.120Z,10.82
2019-02-21T14:08:55.308Z,11.57
2019-02-21T14:11:38.717Z,12.68
2019-02-21T14:14:23.567Z,10.40
2019-02-21T14:17:06.663Z,13.73
2019-02-21T14:19:49.637Z,13.33
2019-02-21T14:22:32.215Z,12.90
2019-02-21T14:25:17.361Z,13.10
2019-02-21T14:28:00.728Z,12.80
2019-02-21T14:30:44.190Z,14.63
2019-02-21T14:33:27.981Z,12.70
2019-02-21T14:36:16.724Z,14.50
2019-02-21T14:38:57.301Z,14.93
2019-02-21T14:41:40.478Z,15.17
2019-02-21T14:44:24.397Z,14.13
2019-02-21T14:47:08.065Z,13.73
2019-02-21T14:49:51.781Z,13.40
2019-02-21T14:52:36.976Z,14.73
2019-02-21T14:55:22.348Z,15.20
2019-02-21T14:58:05.529Z,15.50
2019-02-21T15:00:48.166Z,13.43
2019-02-21T15:03:32.825Z,16.25
2019-02-21T15:06:26.447Z,15.10
2019-02-21T15:09:00.679Z,13.23
2019-02-21T15:11:46.123Z,15.77
2019-02-21T15:14:28.981Z,13.60
2019-02-21T15:17:11.835Z,14.37
2019-02-21T15:19:54.544Z,15.17
2019-02-21T15:22:38.874Z,14.20
2019-02-21T15:25:22.168Z,14.53
2019-02-21T15:28:05.702Z,15.50
2019-02-21T15:30:50.651Z,14.93
2019-02-21T15:33:37.292Z,11.03
2019-02-21T15:36:20.820Z,11.87
2019-02-21T15:39:05.068Z,13.13
2019-02-21T15:41:50.290Z,13.03
2019-02-21T15:44:33.660Z,12.13
2019-02-21T15:47:17.236Z,14.25
2019-02-21T15:50:00.887Z,12.70
2019-02-21T15:52:43.636Z,12.07
2019-02-21T15:55:27.095Z,12.33
2019-02-21T15:58:10.570Z,11.03
2019-02-21T16:00:54.587Z,12.57
2019-02-21T16:03:37.228Z,10.50
2019-02-21T16:06:20.301Z,13.63
2019-02-21T16:09:02.901Z,15.07
2019-02-21T16:11:47.937Z,12.60
2019-02-21T16:14:32.662Z,11.63
2019-02-21T16:17:15.423Z,10.93
2019-02-21T16:20:00.395Z,13.43
2019-02-21T16:22:45.966Z,12.17
2019-02-21T16:25:31.154Z,13.30
2019-02-21T16:28:13.777Z,12.27
2019-02-21T16:30:57.142Z,14.40
2019-02-21T16:33:42.566Z,13.70
2019-02-21T16:36:28.034Z,14.50
2019-02-21T16:39:11.421Z,13.70
2019-02-21T16:41:58.198Z,14.27
2019-02-21T16:44:41.733Z,12.77
2019-02-21T16:47:25.317Z,17.17
2019-02-21T16:50:08.872Z,15.17
2019-02-21T16:52:52.491Z,14.87
2019-02-21T16:55:35.477Z,13.83
2019-02-21T16:58:18.638Z,13.80
2019-02-21T17:01:01.816Z,14.80
2019-02-21T17:03:45.507Z,14.57
2019-02-21T17:06:28.483Z,17.90
2019-02-21T17:09:13.117Z,15.57
2019-02-21T17:11:55.973Z,14.63
2019-02-21T17:14:38.697Z,16.63
2019-02-21T17:17:21.665Z,15.05
2019-02-21T17:20:06.848Z,15.13
2019-02-21T17:22:50.572Z,13.83
2019-02-21T17:25:33.295Z,12.67
2019-02-21T17:28:16.424Z,12.63
2019-02-21T17:30:59.825Z,13.37
2019-02-21T17:33:45.420Z,11.60
2019-02-21T17:36:29.243Z,11.03
2019-02-21T17:39:12.368Z,12.17
2019-02-21T17:41:57.836Z,12.80
2019-02-21T17:44:40.889Z,13.17
2019-02-21T17:47:24.683Z,11.83
2019-02-21T17:50:08.048Z,12.23
2019-02-21T17:52:50.649Z,11.63
2019-02-21T17:58:28.792Z,16.93
2019-02-21T18:01:13.650Z,13.43
2019-02-21T18:03:56.793Z,13.00
2019-02-21T18:06:39.813Z,12.00
2019-02-21T18:09:23.168Z,11.60
2019-02-21T18:12:07.841Z,12.07
2019-02-21T18:14:51.073Z,11.43
2019-02-21T18:17:36.441Z,11.63
2019-02-21T18:20:21.841Z,12.70
2019-02-21T18:23:05.072Z,11.80
2019-02-21T18:25:49.498Z,11.77
2019-02-21T18:28:33.162Z,9.07
2019-02-21T18:31:35.300Z,33.93
2019-02-21T18:34:06.760Z,72.83
2019-02-21T18:36:57.181Z,35.57
2019-02-21T18:39:40.256Z,15.03
2019-02-21T18:42:22.980Z,11.43
2019-02-21T18:45:07.249Z,9.40
2019-02-21T18:47:50.134Z,8.33
2019-02-21T18:50:38.135Z,9.53
2019-02-21T18:53:18.311Z,6.83
2019-02-21T18:56:01.362Z,8.57
2019-02-21T18:58:44.889Z,8.40
2019-02-21T19:01:28.479Z,9.50
2019-02-21T19:04:11.684Z,8.17
2019-02-21T19:06:55.537Z,15.30
2019-02-21T19:09:38.309Z,19.53
2019-02-21T19:12:22.252Z,13.33
2019-02-21T19:15:05.015Z,9.87
2019-02-21T19:17:48.706Z,10.43
2019-02-21T19:20:32.005Z,11.43
2019-02-21T19:23:15.195Z,9.53
2019-02-21T19:25:58.365Z,10.30
2019-02-21T19:28:42.223Z,9.97
2019-02-21T19:31:25.395Z,12.27
2019-02-21T19:34:08.590Z,11.73
2019-02-21T19:36:52.228Z,13.03
2019-02-21T19:39:35.260Z,10.27
2019-02-21T19:42:18.084Z,10.50
2019-02-21T19:45:01.474Z,13.55
2019-02-21T19:47:44.989Z,11.83
2019-02-21T19:50:28.017Z,12.00
2019-02-21T19:53:10.821Z,10.93
2019-02-21T19:55:53.504Z,11.10
2019-02-21T19:58:38.987Z,13.70
2019-02-21T20:01:21.599Z,12.40
2019-02-21T20:04:04.787Z,14.15
2019-02-21T20:06:47.819Z,12.13
2019-02-21T20:09:30.814Z,12.97
2019-02-21T20:12:16.308Z,10.80
2019-02-21T20:14:58.976Z,9.80
2019-02-21T20:17:43.804Z,9.07
2019-02-21T20:20:29.345Z,13.50
2019-02-21T20:23:12.896Z,14.20
2019-02-21T20:25:56.675Z,14.98
2019-02-21T20:28:39.711Z,12.27
2019-02-21T20:31:22.989Z,11.00
2019-02-21T20:34:05.744Z,13.67
2019-02-21T20:36:50.934Z,11.60
2019-02-21T20:39:33.151Z,13.60
2019-02-21T20:42:16.355Z,14.73
2019-02-21T20:44:59.547Z,14.87
2019-02-21T20:47:43.467Z,16.27
2019-02-21T20:50:26.495Z,11.50
2019-02-21T20:53:09.371Z,13.67
2019-02-21T20:55:52.033Z,15.20
2019-02-21T20:58:35.688Z,15.93
2019-02-21T21:01:20.568Z,14.00
2019-02-21T21:04:04.091Z,11.83
2019-02-21T21:06:50.873Z,13.87
2019-02-21T21:09:43.705Z,13.63
2019-02-21T21:12:27.117Z,15.60
2019-02-21T21:15:11.690Z,13.20
2019-02-21T21:17:43.446Z,13.10
2019-02-21T21:20:26.784Z,15.60
2019-02-21T21:23:12.094Z,15.33
2019-02-21T21:25:56.654Z,14.20
2019-02-21T21:28:41.621Z,12.53
2019-02-21T21:31:24.424Z,12.67
2019-02-21T21:34:07.054Z,14.43
2019-02-21T21:36:51.994Z,13.03
2019-02-21T21:39:37.454Z,12.00
2019-02-21T21:42:20.098Z,13.23
2019-02-21T21:45:05.560Z,13.17
2019-02-21T21:47:48.699Z,12.67
2019-02-21T21:50:32.354Z,13.23
2019-02-21T21:53:17.524Z,13.10
2019-02-21T21:56:00.485Z,12.93
2019-02-21T21:58:45.281Z,10.60
2019-02-21T22:01:28.866Z,12.77
2019-02-21T22:04:11.877Z,13.93
2019-02-21T22:06:54.906Z,9.70
2019-02-21T22:09:38.254Z,12.87
2019-02-21T22:12:21.467Z,11.33
2019-02-21T22:15:05.068Z,11.57
2019-02-21T22:17:49.714Z,10.87
2019-02-21T22:20:32.353Z,11.77
2019-02-21T22:23:15.171Z,12.23
2019-02-21T22:26:00.481Z,11.60
2019-02-21T22:28:43.862Z,11.40
2019-02-21T22:31:27.039Z,13.83
2019-02-21T22:34:10.534Z,11.63
2019-02-21T22:36:54.394Z,10.10
2019-02-21T22:39:41.068Z,9.37
2019-02-21T22:42:25.705Z,9.27
2019-02-21T22:45:11.216Z,10.53
2019-02-21T22:47:54.670Z,11.97
2019-02-21T22:50:38.262Z,10.40
2019-02-21T22:53:21.797Z,9.60
2019-02-21T22:56:07.119Z,9.37
2019-02-21T22:58:51.889Z,6.20
2019-02-21T23:01:35.286Z,8.43
2019-02-21T23:04:18.765Z,9.27
2019-02-21T23:07:01.461Z,10.20
2019-02-21T23:09:44.388Z,10.90
2019-02-21T23:12:28.853Z,10.80
2019-02-21T23:15:12.460Z,10.53
2019-02-21T23:17:57.266Z,10.63
2019-02-21T23:20:40.026Z,11.00
2019-02-21T23:23:23.296Z,9.97
2019-02-21T23:26:05.918Z,10.13
2019-02-21T23:28:49.277Z,11.57
2019-02-21T23:31:32.745Z,13.58
2019-02-21T23:34:36.677Z,12.53
2019-02-21T23:37:20.236Z,10.20
2019-02-21T23:40:03.806Z,10.37
2019-02-21T23:42:46.784Z,9.83
2019-02-21T23:45:32.010Z,11.00
2019-02-21T23:48:15.462Z,9.93
2019-02-21T23:50:59.881Z,11.27
2019-02-21T23:53:43.331Z,10.83
2019-02-21T23:56:28.022Z,12.10
2019-02-21T23:59:10.724Z,12.00
